createdAt,value
2017-10-11T00:00:32.159Z,100.00
2017-10-11T00:02:59.671Z,100.00
2017-10-11T00:05:27.184Z,100.00
2017-10-11T00:07:54.696Z,100.00
2017-10-11T00:10:22.208Z,100.00
2017-10-11T00:12:49.739Z,100.00
2017-10-11T00:15:17.257Z,100.00
2017-10-11T00:17:44.760Z,100.00
2017-10-11T00:20:12.273Z,100.00
2017-10-11T00:22:39.917Z,100.00
2017-10-11T00:25:07.462Z,100.00
2017-10-11T00:27:35.008Z,100.00
2017-10-11T00:30:02.525Z,100.00
2017-10-11T00:32:30.045Z,100.00
2017-10-11T00:34:57.597Z,100.00
2017-10-11T00:37:25.115Z,100.00
2017-10-11T00:39:52.613Z,100.00
2017-10-11T00:42:20.140Z,100.00
2017-10-11T00:49:23.707Z,100.00
2017-10-11T00:51:51.204Z,100.00
2017-10-11T00:54:18.740Z,100.00
2017-10-11T00:56:46.284Z,100.00
2017-10-11T00:59:13.800Z,100.00
2017-10-11T01:01:41.320Z,100.00
2017-10-11T01:04:08.832Z,100.00
2017-10-11T01:06:36.348Z,100.00
2017-10-11T01:09:03.867Z,100.00
2017-10-11T01:11:31.395Z,100.00
2017-10-11T01:13:58.908Z,100.00
2017-10-11T01:16:26.550Z,100.00
2017-10-11T01:18:54.120Z,100.00
2017-10-11T01:21:21.631Z,100.00
2017-10-11T01:23:49.140Z,100.00
2017-10-11T01:26:16.662Z,100.00
2017-10-11T01:28:44.195Z,100.00
2017-10-11T01:31:11.730Z,100.00
2017-10-11T01:33:39.253Z,100.00
2017-10-11T01:36:06.809Z,100.00
2017-10-11T01:38:34.331Z,100.00
2017-10-11T01:41:01.868Z,100.00
2017-10-11T01:43:29.428Z,100.00
2017-10-11T01:45:56.953Z,100.00
2017-10-11T01:48:24.466Z,100.00
2017-10-11T01:50:51.972Z,100.00
2017-10-11T01:53:19.483Z,100.00
2017-10-11T01:55:47.021Z,100.00
2017-10-11T01:58:14.531Z,100.00
2017-10-11T02:00:42.097Z,100.00
2017-10-11T02:03:09.610Z,100.00
2017-10-11T02:05:37.163Z,100.00
2017-10-11T02:08:04.672Z,100.00
2017-10-11T02:10:32.211Z,100.00
2017-10-11T02:12:59.717Z,100.00
2017-10-11T02:15:27.226Z,100.00
2017-10-11T02:17:54.739Z,100.00
2017-10-11T02:20:22.234Z,100.00
2017-10-11T02:22:49.747Z,100.00
2017-10-11T02:25:17.270Z,100.00
2017-10-11T02:27:44.787Z,100.00
2017-10-11T02:30:12.299Z,100.00
2017-10-11T02:32:39.829Z,100.00
2017-10-11T02:35:07.345Z,100.00
2017-10-11T02:37:34.855Z,100.00
2017-10-11T02:40:02.424Z,100.00
2017-10-11T02:42:29.956Z,100.00
2017-10-11T02:44:57.460Z,100.00
2017-10-11T02:47:24.993Z,100.00
2017-10-11T02:49:52.537Z,100.00
2017-10-11T02:52:20.044Z,100.00
2017-10-11T02:54:47.565Z,100.00
2017-10-11T02:57:15.072Z,100.00
2017-10-11T02:59:42.597Z,100.00
2017-10-11T03:02:10.115Z,100.00
2017-10-11T03:04:37.703Z,100.00
2017-10-11T03:07:05.215Z,100.00
2017-10-11T03:09:32.736Z,100.00
2017-10-11T03:12:00.270Z,100.00
2017-10-11T03:14:27.790Z,100.00
2017-10-11T03:16:55.328Z,100.00
2017-10-11T03:19:22.827Z,100.00
2017-10-11T03:21:50.348Z,100.00
2017-10-11T03:24:17.868Z,100.00
2017-10-11T03:26:45.394Z,100.00
2017-10-11T03:29:12.901Z,100.00
2017-10-11T03:31:40.419Z,100.00
2017-10-11T03:34:08.817Z,100.00
2017-10-11T03:36:36.329Z,100.00
2017-10-11T03:39:03.843Z,100.00
2017-10-11T03:41:31.364Z,100.00
2017-10-11T03:43:58.881Z,100.00
2017-10-11T03:46:26.417Z,100.00
2017-10-11T03:48:53.949Z,100.00
2017-10-11T03:51:21.456Z,100.00
2017-10-11T03:53:48.975Z,100.00
2017-10-11T03:56:16.487Z,100.00
2017-10-11T03:58:44.102Z,100.00
2017-10-11T04:01:11.613Z,100.00
2017-10-11T04:03:39.272Z,100.00
2017-10-11T04:06:06.800Z,100.00
2017-10-11T04:08:34.309Z,100.00
2017-10-11T04:11:01.825Z,100.00
2017-10-11T04:13:29.344Z,100.00
2017-10-11T04:15:56.868Z,100.00
2017-10-11T04:18:24.388Z,100.00
2017-10-11T04:20:51.901Z,100.00
2017-10-11T04:23:19.454Z,100.00
2017-10-11T04:25:46.962Z,100.00
2017-10-11T04:28:14.609Z,100.00
2017-10-11T04:30:42.136Z,100.00
2017-10-11T04:33:09.719Z,100.00
2017-10-11T04:35:37.243Z,100.00
2017-10-11T04:38:04.768Z,100.00
2017-10-11T04:40:32.308Z,100.00
2017-10-11T04:42:59.871Z,100.00
2017-10-11T04:45:27.392Z,100.00
2017-10-11T04:47:54.936Z,100.00
2017-10-11T04:50:22.443Z,100.00
2017-10-11T04:52:49.984Z,100.00
2017-10-11T04:55:17.511Z,100.00
2017-10-11T04:57:45.015Z,100.00
2017-10-11T05:00:12.534Z,100.00
2017-10-11T05:02:40.118Z,100.00
2017-10-11T05:05:07.675Z,100.00
2017-10-11T05:07:35.203Z,100.00
2017-10-11T05:10:02.704Z,100.00
2017-10-11T05:12:30.208Z,100.00
2017-10-11T05:14:57.739Z,100.00
2017-10-11T05:17:25.251Z,100.00
2017-10-11T05:19:52.790Z,100.00
2017-10-11T05:22:20.313Z,100.00
2017-10-11T05:24:47.834Z,100.00
2017-10-11T05:27:15.381Z,100.00
2017-10-11T05:29:42.909Z,100.00
2017-10-11T05:32:10.514Z,100.00
2017-10-11T05:34:38.058Z,100.00
2017-10-11T05:37:05.574Z,100.00
2017-10-11T05:39:33.199Z,100.00
2017-10-11T05:42:00.709Z,100.00
2017-10-11T05:44:28.309Z,100.00
2017-10-11T05:46:55.819Z,100.00
2017-10-11T05:49:23.427Z,100.00
2017-10-11T05:51:50.985Z,100.00
2017-10-11T05:54:18.554Z,99.99
2017-10-11T05:56:46.103Z,99.64
2017-10-11T05:59:13.607Z,98.76
2017-10-11T06:01:41.114Z,98.38
2017-10-11T06:04:08.611Z,98.84
2017-10-11T06:06:36.118Z,99.22
2017-10-11T06:09:03.627Z,99.97
2017-10-11T06:11:31.150Z,100.00
2017-10-11T06:13:58.660Z,100.00
2017-10-11T06:16:26.269Z,100.00
2017-10-11T06:18:53.780Z,100.00
2017-10-11T06:21:21.324Z,100.00
2017-10-11T06:23:48.834Z,100.00
2017-10-11T06:26:16.360Z,100.00
2017-10-11T06:28:43.887Z,100.00
2017-10-11T06:31:11.388Z,100.00
2017-10-11T06:33:38.898Z,99.92
2017-10-11T06:36:06.399Z,99.37
2017-10-11T06:38:33.942Z,99.26
2017-10-11T06:41:01.467Z,98.87
2017-10-11T06:43:28.997Z,97.89
2017-10-11T06:45:56.532Z,97.07
2017-10-11T06:48:24.052Z,96.86
2017-10-11T06:50:51.559Z,96.48
2017-10-11T06:53:19.076Z,96.86
2017-10-11T06:55:46.593Z,95.82
2017-10-11T06:58:14.124Z,95.30
2017-10-11T07:00:41.615Z,93.72
2017-10-11T07:03:09.169Z,94.22
2017-10-11T07:05:36.682Z,93.39
2017-10-11T07:08:04.200Z,89.88
2017-10-11T07:10:31.715Z,92.02
2017-10-11T07:12:59.272Z,90.35
2017-10-11T07:15:26.788Z,89.33
2017-10-11T07:17:54.299Z,90.39
2017-10-11T07:20:21.812Z,89.71
2017-10-11T07:22:49.333Z,85.23
2017-10-11T07:25:16.839Z,80.70
2017-10-11T07:27:44.349Z,80.13
2017-10-11T07:30:11.851Z,81.22
2017-10-11T07:32:39.370Z,81.44
2017-10-11T07:35:06.880Z,73.87
2017-10-11T07:37:34.383Z,74.11
2017-10-11T07:40:01.888Z,72.30
2017-10-11T07:42:29.409Z,70.21
2017-10-11T07:44:56.953Z,72.02
2017-10-11T07:47:24.628Z,73.54
2017-10-11T07:49:52.134Z,71.64
2017-10-11T07:52:19.668Z,72.58
2017-10-11T07:54:47.179Z,70.80
2017-10-11T07:57:14.884Z,76.89
2017-10-11T07:59:42.387Z,72.51
2017-10-11T08:02:09.898Z,60.11
2017-10-11T08:04:37.435Z,56.98
2017-10-11T08:07:04.943Z,56.00
2017-10-11T08:09:32.464Z,60.51
2017-10-11T08:12:00.037Z,56.26
2017-10-11T08:14:27.552Z,55.89
2017-10-11T08:16:55.074Z,52.86
2017-10-11T08:19:22.604Z,50.48
2017-10-11T08:21:50.124Z,47.24
2017-10-11T08:24:17.638Z,43.60
2017-10-11T08:26:45.155Z,41.25
2017-10-11T08:29:12.655Z,46.26
2017-10-11T08:31:40.174Z,43.62
2017-10-11T08:34:07.679Z,42.85
2017-10-11T08:36:35.204Z,40.53
2017-10-11T08:39:02.720Z,37.04
2017-10-11T08:41:30.221Z,36.71
2017-10-11T08:43:57.735Z,34.67
2017-10-11T08:46:25.261Z,36.18
2017-10-11T08:48:52.793Z,37.45
2017-10-11T08:51:20.317Z,35.58
2017-10-11T08:53:47.837Z,34.86
2017-10-11T08:56:15.352Z,35.66
2017-10-11T08:58:42.854Z,36.96
2017-10-11T09:01:10.396Z,31.84
2017-10-11T09:03:37.920Z,33.96
2017-10-11T09:06:05.459Z,31.00
2017-10-11T09:08:32.963Z,36.41
2017-10-11T09:11:00.465Z,35.53
2017-10-11T09:13:27.972Z,33.89
2017-10-11T09:15:55.485Z,33.18
2017-10-11T09:18:23.056Z,38.57
2017-10-11T09:20:50.556Z,33.68
2017-10-11T09:23:18.092Z,28.66
2017-10-11T09:25:45.604Z,28.98
2017-10-11T09:28:13.140Z,28.39
2017-10-11T09:30:40.643Z,32.53
2017-10-11T09:33:08.144Z,35.84
2017-10-11T09:35:35.670Z,29.97
2017-10-11T09:38:03.226Z,33.85
2017-10-11T09:40:30.724Z,31.45
2017-10-11T09:42:58.240Z,30.29
2017-10-11T09:45:25.769Z,33.65
2017-10-11T09:47:53.282Z,39.69
2017-10-11T09:50:20.880Z,37.38
2017-10-11T09:52:48.416Z,44.31
2017-10-11T09:55:15.939Z,41.15
2017-10-11T09:57:43.451Z,38.43
2017-10-11T10:00:10.948Z,41.92
2017-10-11T10:02:38.455Z,47.18
2017-10-11T10:05:05.959Z,48.26
2017-10-11T10:07:33.574Z,52.97
2017-10-11T10:10:01.117Z,52.99
2017-10-11T10:12:28.627Z,56.12
2017-10-11T10:14:56.136Z,57.35
2017-10-11T10:17:23.638Z,61.06
2017-10-11T10:19:51.239Z,45.33
2017-10-11T10:22:18.764Z,35.77
2017-10-11T10:24:46.290Z,33.10
2017-10-11T10:27:13.854Z,35.49
2017-10-11T10:29:41.365Z,34.86
2017-10-11T10:32:08.878Z,41.73
2017-10-11T10:34:36.393Z,45.83
2017-10-11T10:37:03.915Z,48.43
2017-10-11T10:39:31.418Z,49.52
2017-10-11T10:41:58.942Z,50.20
2017-10-11T10:44:26.465Z,49.17
2017-10-11T10:46:53.988Z,48.16
2017-10-11T10:49:21.494Z,41.36
2017-10-11T10:51:49.010Z,40.78
2017-10-11T10:54:16.549Z,39.36
2017-10-11T10:56:44.110Z,41.59
2017-10-11T10:59:11.615Z,39.87
2017-10-11T11:01:39.148Z,32.36
2017-10-11T11:04:06.653Z,30.40
2017-10-11T11:06:34.163Z,29.55
2017-10-11T11:09:01.700Z,41.19
2017-10-11T11:11:29.207Z,40.48
2017-10-11T11:13:56.720Z,34.53
2017-10-11T11:16:24.239Z,35.04
2017-10-11T11:18:51.746Z,34.60
2017-10-11T11:21:19.368Z,31.06
2017-10-11T11:23:46.870Z,27.15
2017-10-11T11:26:14.396Z,31.28
2017-10-11T11:28:41.913Z,32.41
2017-10-11T11:31:09.441Z,35.62
2017-10-11T11:33:36.955Z,41.80
2017-10-11T11:36:04.565Z,37.84
2017-10-11T11:38:32.091Z,34.69
2017-10-11T11:40:59.604Z,36.33
2017-10-11T11:43:28.820Z,39.88
2017-10-11T11:45:56.347Z,41.93
2017-10-11T11:48:23.879Z,39.19
2017-10-11T11:50:51.387Z,37.11
2017-10-11T11:53:18.898Z,33.18
2017-10-11T11:55:46.456Z,30.07
2017-10-11T11:58:14.005Z,28.39
2017-10-11T12:00:41.525Z,30.94
2017-10-11T12:03:09.036Z,33.88
2017-10-11T12:05:36.563Z,32.83
2017-10-11T12:08:04.087Z,32.82
2017-10-11T12:10:31.586Z,28.37
2017-10-11T12:12:59.118Z,27.56
2017-10-11T12:15:26.636Z,36.27
2017-10-11T12:17:54.148Z,35.15
2017-10-11T12:20:21.694Z,32.41
2017-10-11T12:22:49.240Z,31.72
2017-10-11T12:25:16.798Z,40.46
2017-10-11T12:27:44.311Z,38.10
2017-10-11T12:30:11.827Z,32.50
2017-10-11T12:32:39.335Z,33.63
2017-10-11T12:35:06.848Z,30.13
2017-10-11T12:37:34.375Z,29.43
2017-10-11T12:40:01.919Z,29.60
2017-10-11T12:42:29.444Z,33.17
2017-10-11T12:44:56.968Z,41.17
2017-10-11T12:47:24.488Z,38.83
2017-10-11T12:49:52.008Z,34.45
2017-10-11T12:52:19.535Z,38.76
2017-10-11T12:54:47.106Z,43.76
2017-10-11T12:57:14.634Z,45.22
2017-10-11T12:59:42.134Z,45.41
2017-10-11T13:02:09.652Z,48.61
2017-10-11T13:04:37.163Z,45.41
2017-10-11T13:07:04.703Z,47.45
2017-10-11T13:09:32.216Z,48.73
2017-10-11T13:11:59.763Z,42.02
2017-10-11T13:14:27.281Z,41.01
2017-10-11T13:16:54.862Z,34.75
2017-10-11T13:19:22.371Z,37.43
2017-10-11T13:21:49.904Z,42.43
2017-10-11T13:24:17.423Z,43.72
2017-10-11T13:26:44.967Z,47.92
2017-10-11T13:29:12.519Z,51.72
2017-10-11T13:31:40.036Z,50.31
2017-10-11T13:34:07.584Z,41.57
2017-10-11T13:36:35.098Z,36.80
2017-10-11T13:39:02.614Z,34.96
2017-10-11T13:41:30.123Z,35.16
2017-10-11T13:43:57.674Z,38.41
2017-10-11T13:46:25.200Z,38.47
2017-10-11T13:48:52.726Z,39.40
2017-10-11T13:51:20.236Z,40.55
2017-10-11T13:53:47.749Z,39.19
2017-10-11T13:56:15.259Z,38.81
2017-10-11T13:58:42.795Z,40.16
2017-10-11T14:01:10.330Z,42.57
2017-10-11T14:03:37.912Z,38.52
2017-10-11T14:06:05.494Z,36.50
2017-10-11T14:08:33.005Z,37.19
2017-10-11T14:11:00.512Z,37.65
2017-10-11T14:13:28.068Z,38.19
2017-10-11T14:15:55.569Z,37.13
2017-10-11T14:18:23.120Z,39.59
2017-10-11T14:20:50.641Z,40.35
2017-10-11T14:23:18.174Z,42.49
2017-10-11T14:25:45.709Z,46.33
2017-10-11T14:28:13.240Z,51.94
2017-10-11T14:30:40.748Z,51.27
2017-10-11T14:33:08.265Z,51.92
2017-10-11T14:35:35.783Z,55.86
2017-10-11T14:38:03.282Z,54.33
2017-10-11T14:40:30.788Z,56.32
2017-10-11T14:42:58.439Z,54.38
2017-10-11T14:45:25.951Z,58.45
2017-10-11T14:47:53.463Z,58.48
2017-10-11T14:50:20.967Z,62.68
2017-10-11T14:52:48.489Z,60.77
2017-10-11T14:55:15.994Z,60.28
2017-10-11T14:57:43.522Z,56.01
2017-10-11T15:00:11.031Z,55.69
2017-10-11T15:02:38.536Z,61.08
2017-10-11T15:05:06.049Z,65.49
2017-10-11T15:07:33.556Z,65.84
2017-10-11T15:10:01.102Z,66.49
2017-10-11T15:12:28.599Z,67.29
2017-10-11T15:14:56.114Z,66.47
2017-10-11T15:17:23.644Z,67.73
2017-10-11T15:19:51.172Z,68.33
2017-10-11T15:22:18.692Z,68.51
2017-10-11T15:24:46.216Z,70.01
2017-10-11T15:27:13.734Z,67.34
2017-10-11T15:29:41.254Z,68.88
2017-10-11T15:32:08.812Z,70.95
2017-10-11T15:34:36.352Z,71.67
2017-10-11T15:37:03.894Z,66.88
2017-10-11T15:39:31.435Z,65.15
2017-10-11T15:41:58.947Z,64.33
2017-10-11T15:44:26.475Z,64.69
2017-10-11T15:46:54.073Z,63.94
2017-10-11T15:49:21.628Z,64.53
2017-10-11T15:51:49.145Z,65.09
2017-10-11T15:54:16.672Z,66.20
2017-10-11T15:56:44.251Z,66.16
2017-10-11T15:59:11.773Z,67.07
2017-10-11T16:01:39.304Z,67.96
2017-10-11T16:04:06.846Z,70.73
2017-10-11T16:06:34.362Z,69.75
2017-10-11T16:09:01.893Z,73.71
2017-10-11T16:11:29.407Z,74.93
2017-10-11T16:13:56.962Z,75.63
2017-10-11T16:16:24.465Z,77.50
2017-10-11T16:18:52.418Z,77.30
2017-10-11T16:21:19.928Z,77.20
2017-10-11T16:23:47.449Z,78.65
2017-10-11T16:26:14.973Z,80.01
2017-10-11T16:28:42.507Z,80.60
2017-10-11T16:31:10.028Z,80.46
2017-10-11T16:33:37.531Z,81.52
2017-10-11T16:36:05.084Z,82.93
2017-10-11T16:38:32.602Z,83.36
2017-10-11T16:41:00.121Z,83.35
2017-10-11T16:43:27.637Z,84.28
2017-10-11T16:45:55.278Z,84.60
2017-10-11T16:48:22.836Z,85.16
2017-10-11T16:50:50.365Z,85.87
2017-10-11T16:53:17.884Z,86.67
2017-10-11T16:55:45.419Z,86.48
2017-10-11T16:58:12.943Z,86.82
2017-10-11T17:00:40.471Z,86.51
2017-10-11T17:03:08.031Z,87.28
2017-10-11T17:05:35.648Z,87.95
2017-10-11T17:08:03.161Z,89.65
2017-10-11T17:10:30.693Z,89.16
2017-10-11T17:12:58.238Z,89.69
2017-10-11T17:15:25.770Z,89.45
2017-10-11T17:17:53.307Z,87.25
2017-10-11T17:20:20.816Z,90.20
2017-10-11T17:22:48.329Z,90.21
2017-10-11T17:25:15.852Z,90.59
2017-10-11T17:27:43.476Z,90.14
2017-10-11T17:30:11.040Z,91.56
2017-10-11T17:32:38.568Z,91.75
2017-10-11T17:35:06.101Z,90.70
2017-10-11T17:37:33.620Z,91.17
2017-10-11T17:40:01.137Z,90.26
2017-10-11T17:42:28.648Z,90.39
2017-10-11T17:44:56.181Z,89.89
2017-10-11T17:47:23.715Z,90.67
2017-10-11T17:49:51.266Z,91.64
2017-10-11T17:52:18.787Z,92.16
2017-10-11T17:54:46.324Z,92.37
2017-10-11T17:57:13.973Z,93.03
2017-10-11T17:59:41.479Z,93.68
2017-10-11T18:02:09.020Z,93.07
2017-10-11T18:04:36.567Z,93.48
2017-10-11T18:07:04.080Z,92.77
2017-10-11T18:09:31.635Z,92.31
2017-10-11T18:11:59.163Z,92.93
2017-10-11T18:14:26.673Z,93.14
2017-10-11T18:16:54.224Z,94.06
2017-10-11T18:19:21.767Z,94.58
2017-10-11T18:21:49.354Z,92.88
2017-10-11T18:24:16.910Z,92.90
2017-10-11T18:26:44.473Z,93.24
2017-10-11T18:29:12.006Z,93.51
2017-10-11T18:31:39.542Z,93.75
2017-10-11T18:34:07.148Z,94.16
2017-10-11T18:36:34.692Z,94.03
2017-10-11T18:39:02.247Z,94.39
2017-10-11T18:41:29.777Z,94.77
2017-10-11T18:43:57.312Z,95.09
2017-10-11T18:46:24.830Z,95.10
2017-10-11T18:48:52.368Z,94.74
2017-10-11T18:51:19.896Z,93.18
2017-10-11T18:53:47.419Z,94.13
2017-10-11T18:56:14.972Z,95.07
2017-10-11T18:58:42.538Z,94.36
2017-10-11T19:01:10.058Z,95.02
2017-10-11T19:03:37.634Z,94.66
2017-10-11T19:06:05.164Z,94.33
2017-10-11T19:08:32.834Z,94.75
2017-10-11T19:11:00.375Z,95.08
2017-10-11T19:13:27.939Z,95.07
2017-10-11T19:15:55.471Z,95.72
2017-10-11T19:18:23.007Z,95.07
2017-10-11T19:20:50.560Z,95.26
2017-10-11T19:23:18.104Z,95.00
2017-10-11T19:25:45.639Z,95.70
2017-10-11T19:28:13.167Z,95.81
2017-10-11T19:30:40.805Z,96.00
2017-10-11T19:33:08.337Z,95.18
2017-10-11T19:35:35.858Z,95.11
2017-10-11T19:38:03.375Z,95.51
2017-10-11T19:40:30.925Z,95.31
2017-10-11T19:42:58.466Z,96.03
2017-10-11T19:45:25.980Z,95.97
2017-10-11T19:47:53.529Z,95.52
2017-10-11T19:50:21.047Z,95.59
2017-10-11T19:52:48.562Z,95.39
2017-10-11T19:55:16.079Z,93.91
2017-10-11T19:57:43.684Z,94.64
2017-10-11T20:00:12.181Z,94.67
2017-10-11T20:02:40.038Z,94.31
2017-10-11T20:05:07.615Z,94.65
2017-10-11T20:07:35.141Z,94.83
2017-10-11T20:10:02.676Z,95.44
2017-10-11T20:12:32.364Z,95.84
2017-10-11T20:15:01.682Z,94.62
2017-10-11T20:17:34.774Z,94.71
2017-10-11T20:20:04.673Z,94.00
2017-10-11T20:22:38.191Z,94.84
2017-10-11T20:25:07.822Z,95.37
2017-10-11T20:27:43.646Z,95.44
2017-10-11T20:30:14.672Z,95.69
2017-10-11T20:32:45.221Z,95.32
2017-10-11T20:35:14.801Z,95.50
2017-10-11T20:37:43.181Z,96.07
2017-10-11T20:40:13.588Z,96.76
2017-10-11T20:42:45.579Z,96.29
2017-10-11T20:45:13.149Z,95.00
2017-10-11T20:47:45.038Z,95.57
2017-10-11T20:50:14.814Z,95.42
2017-10-11T20:52:42.328Z,95.66
2017-10-11T20:55:09.856Z,94.75
2017-10-11T20:57:37.371Z,94.87
2017-10-11T21:00:04.913Z,94.90
2017-10-11T21:02:32.431Z,95.46
2017-10-11T21:05:00.051Z,95.95
2017-10-11T21:07:27.583Z,95.65
2017-10-11T21:09:55.146Z,96.19
2017-10-11T21:12:22.727Z,96.08
2017-10-11T21:14:50.266Z,95.86
2017-10-11T21:17:17.775Z,94.75
2017-10-11T21:19:45.294Z,94.93
2017-10-11T21:22:12.821Z,95.56
2017-10-11T21:24:40.357Z,96.46
2017-10-11T21:27:07.871Z,96.18
2017-10-11T21:29:35.406Z,96.54
2017-10-11T21:32:02.914Z,96.05
2017-10-11T21:34:30.455Z,95.96
2017-10-11T21:36:57.959Z,94.46
2017-10-11T21:39:25.611Z,95.14
2017-10-11T21:41:53.140Z,95.17
2017-10-11T21:44:20.665Z,94.98
2017-10-11T21:46:48.347Z,95.06
2017-10-11T21:49:15.882Z,96.16
2017-10-11T21:51:43.417Z,95.83
2017-10-11T21:54:10.916Z,97.01
2017-10-11T21:56:38.435Z,96.68
2017-10-11T21:59:06.039Z,96.33
2017-10-11T22:01:33.554Z,95.74
2017-10-11T22:04:01.090Z,95.78
2017-10-11T22:06:28.621Z,95.73
2017-10-11T22:08:56.145Z,95.68
2017-10-11T22:11:23.728Z,95.97
2017-10-11T22:13:51.249Z,96.25
2017-10-11T22:16:18.783Z,96.60
2017-10-11T22:18:46.300Z,96.95
2017-10-11T22:21:13.862Z,96.07
2017-10-11T22:23:41.414Z,96.14
2017-10-11T22:26:08.951Z,96.23
2017-10-11T22:28:36.562Z,95.95
2017-10-11T22:31:04.075Z,95.01
2017-10-11T22:33:31.631Z,95.42
2017-10-11T22:35:59.160Z,96.00
2017-10-11T22:38:26.679Z,96.64
2017-10-11T22:40:54.194Z,96.11
2017-10-11T22:43:21.712Z,96.41
2017-10-11T22:45:49.230Z,96.94
2017-10-11T22:48:16.804Z,97.27
2017-10-11T22:50:44.331Z,96.13
2017-10-11T22:53:11.831Z,95.93
2017-10-11T22:55:39.378Z,96.05
2017-10-11T22:58:06.944Z,96.43
2017-10-11T23:00:34.448Z,96.16
2017-10-11T23:03:01.965Z,95.57
2017-10-11T23:05:29.502Z,96.29
2017-10-11T23:07:57.080Z,97.39
2017-10-11T23:10:24.615Z,97.70
2017-10-11T23:12:52.128Z,98.07
2017-10-11T23:15:19.640Z,98.12
2017-10-11T23:17:47.176Z,98.22
2017-10-11T23:20:14.687Z,97.94
2017-10-11T23:22:42.183Z,97.41
2017-10-11T23:25:09.696Z,97.64
2017-10-11T23:27:37.215Z,96.70
2017-10-11T23:30:04.739Z,97.06
2017-10-11T23:32:32.353Z,96.65
2017-10-11T23:34:59.891Z,97.18
2017-10-11T23:37:27.392Z,96.40
2017-10-11T23:39:54.899Z,96.03
2017-10-11T23:42:22.397Z,97.11
2017-10-11T23:44:49.901Z,97.87
2017-10-11T23:47:17.419Z,98.08
2017-10-11T23:49:44.934Z,97.36
2017-10-11T23:52:12.446Z,96.70
2017-10-11T23:54:40.038Z,96.68
2017-10-11T23:57:07.565Z,97.03
2017-10-11T23:59:38.517Z,96.99
